sensor_id;sensor_type;location;lat;lon;timestamp;P1;durP1;ratioP1;P2;durP2;ratioP2
36931;SDS011;22847;42.654;23.370;2023-05-23T00:01:37;13.93;;;8.93;;
36931;SDS011;22847;42.654;23.370;2023-05-23T00:04:03;15.27;;;10.05;;
36931;SDS011;22847;42.654;23.370;2023-05-23T00:06:29;16.55;;;8.73;;
36931;SDS011;22847;42.654;23.370;2023-05-23T00:08:55;15.90;;;9.13;;
36931;SDS011;22847;42.654;23.370;2023-05-23T00:11:21;14.32;;;7.88;;
36931;SDS011;22847;42.654;23.370;2023-05-23T00:13:51;12.82;;;8.07;;
36931;SDS011;22847;42.654;23.370;2023-05-23T00:16:16;18.02;;;7.75;;
36931;SDS011;22847;42.654;23.370;2023-05-23T00:18:42;12.20;;;8.30;;
36931;SDS011;22847;42.654;23.370;2023-05-23T00:21:09;10.43;;;7.68;;
36931;SDS011;22847;42.654;23.370;2023-05-23T00:23:35;12.55;;;7.90;;
36931;SDS011;22847;42.654;23.370;2023-05-23T00:26:01;13.52;;;7.95;;
36931;SDS011;22847;42.654;23.370;2023-05-23T00:28:26;11.10;;;7.43;;
36931;SDS011;22847;42.654;23.370;2023-05-23T00:30:52;11.32;;;7.82;;
36931;SDS011;22847;42.654;23.370;2023-05-23T00:33:17;12.43;;;7.50;;
36931;SDS011;22847;42.654;23.370;2023-05-23T00:35:46;12.60;;;7.57;;
36931;SDS011;22847;42.654;23.370;2023-05-23T00:38:13;11.65;;;7.25;;
36931;SDS011;22847;42.654;23.370;2023-05-23T00:40:38;11.43;;;6.68;;
36931;SDS011;22847;42.654;23.370;2023-05-23T00:43:04;10.52;;;6.75;;
36931;SDS011;22847;42.654;23.370;2023-05-23T00:45:30;11.75;;;6.47;;
36931;SDS011;22847;42.654;23.370;2023-05-23T00:47:56;10.63;;;7.15;;
36931;SDS011;22847;42.654;23.370;2023-05-23T00:50:23;11.95;;;7.70;;
36931;SDS011;22847;42.654;23.370;2023-05-23T00:52:49;12.32;;;7.25;;
36931;SDS011;22847;42.654;23.370;2023-05-23T00:55:15;9.88;;;6.40;;
36931;SDS011;22847;42.654;23.370;2023-05-23T00:57:40;9.57;;;5.07;;
36931;SDS011;22847;42.654;23.370;2023-05-23T01:00:09;6.40;;;4.85;;
36931;SDS011;22847;42.654;23.370;2023-05-23T01:02:44;7.28;;;4.65;;
36931;SDS011;22847;42.654;23.370;2023-05-23T01:05:14;9.65;;;4.70;;
36931;SDS011;22847;42.654;23.370;2023-05-23T01:10:10;8.88;;;4.55;;
36931;SDS011;22847;42.654;23.370;2023-05-23T01:18:28;11.02;;;4.30;;
36931;SDS011;22847;42.654;23.370;2023-05-23T01:21:01;10.73;;;4.97;;
36931;SDS011;22847;42.654;23.370;2023-05-23T01:28:51;14.50;;;5.00;;
36931;SDS011;22847;42.654;23.370;2023-05-23T01:31:20;6.47;;;5.05;;
36931;SDS011;22847;42.654;23.370;2023-05-23T01:33:48;6.55;;;5.10;;
36931;SDS011;22847;42.654;23.370;2023-05-23T01:36:17;12.98;;;4.82;;
36931;SDS011;22847;42.654;23.370;2023-05-23T01:38:43;12.85;;;5.28;;
36931;SDS011;22847;42.654;23.370;2023-05-23T01:41:08;6.82;;;4.47;;
36931;SDS011;22847;42.654;23.370;2023-05-23T01:43:34;6.65;;;4.70;;
36931;SDS011;22847;42.654;23.370;2023-05-23T01:46:00;7.05;;;4.70;;
36931;SDS011;22847;42.654;23.370;2023-05-23T01:48:27;7.22;;;4.15;;
36931;SDS011;22847;42.654;23.370;2023-05-23T01:50:53;9.27;;;4.82;;
36931;SDS011;22847;42.654;23.370;2023-05-23T01:53:21;8.65;;;4.55;;
36931;SDS011;22847;42.654;23.370;2023-05-23T01:55:47;5.18;;;4.00;;
36931;SDS011;22847;42.654;23.370;2023-05-23T01:58:13;6.78;;;4.25;;
36931;SDS011;22847;42.654;23.370;2023-05-23T02:00:39;11.23;;;4.65;;
36931;SDS011;22847;42.654;23.370;2023-05-23T02:03:04;8.23;;;5.95;;
36931;SDS011;22847;42.654;23.370;2023-05-23T02:05:30;10.35;;;5.75;;
36931;SDS011;22847;42.654;23.370;2023-05-23T02:07:56;11.60;;;5.57;;
36931;SDS011;22847;42.654;23.370;2023-05-23T02:10:21;7.13;;;5.32;;
36931;SDS011;22847;42.654;23.370;2023-05-23T02:12:47;12.52;;;7.10;;
36931;SDS011;22847;42.654;23.370;2023-05-23T02:15:12;9.98;;;5.93;;
36931;SDS011;22847;42.654;23.370;2023-05-23T02:17:38;9.20;;;4.97;;
36931;SDS011;22847;42.654;23.370;2023-05-23T02:20:04;6.55;;;4.95;;
36931;SDS011;22847;42.654;23.370;2023-05-23T02:22:30;11.13;;;5.45;;
36931;SDS011;22847;42.654;23.370;2023-05-23T02:24:56;8.75;;;4.78;;
36931;SDS011;22847;42.654;23.370;2023-05-23T02:27:21;10.20;;;4.82;;
36931;SDS011;22847;42.654;23.370;2023-05-23T02:29:46;9.13;;;4.35;;
36931;SDS011;22847;42.654;23.370;2023-05-23T02:32:12;5.22;;;4.18;;
36931;SDS011;22847;42.654;23.370;2023-05-23T02:34:37;7.57;;;4.80;;
36931;SDS011;22847;42.654;23.370;2023-05-23T02:37:03;8.55;;;5.30;;
36931;SDS011;22847;42.654;23.370;2023-05-23T02:39:28;11.45;;;5.95;;
36931;SDS011;22847;42.654;23.370;2023-05-23T02:41:54;8.38;;;5.50;;
36931;SDS011;22847;42.654;23.370;2023-05-23T02:44:19;9.45;;;4.75;;
36931;SDS011;22847;42.654;23.370;2023-05-23T02:46:45;6.57;;;4.47;;
36931;SDS011;22847;42.654;23.370;2023-05-23T02:49:10;7.45;;;4.75;;
36931;SDS011;22847;42.654;23.370;2023-05-23T02:51:36;5.47;;;4.28;;
36931;SDS011;22847;42.654;23.370;2023-05-23T02:54:01;7.68;;;4.28;;
36931;SDS011;22847;42.654;23.370;2023-05-23T02:56:27;5.20;;;4.10;;
36931;SDS011;22847;42.654;23.370;2023-05-23T02:58:53;6.10;;;4.32;;
36931;SDS011;22847;42.654;23.370;2023-05-23T03:01:19;7.30;;;4.03;;
36931;SDS011;22847;42.654;23.370;2023-05-23T03:03:44;8.05;;;3.75;;
36931;SDS011;22847;42.654;23.370;2023-05-23T03:06:10;5.78;;;4.10;;
36931;SDS011;22847;42.654;23.370;2023-05-23T03:08:38;8.02;;;4.00;;
36931;SDS011;22847;42.654;23.370;2023-05-23T03:11:04;11.82;;;4.18;;
36931;SDS011;22847;42.654;23.370;2023-05-23T03:13:30;5.75;;;4.32;;
36931;SDS011;22847;42.654;23.370;2023-05-23T03:15:55;7.00;;;3.85;;
36931;SDS011;22847;42.654;23.370;2023-05-23T03:18:21;7.25;;;3.90;;
36931;SDS011;22847;42.654;23.370;2023-05-23T03:20:46;6.15;;;3.97;;
36931;SDS011;22847;42.654;23.370;2023-05-23T03:23:11;6.45;;;3.72;;
36931;SDS011;22847;42.654;23.370;2023-05-23T03:25:37;4.63;;;3.13;;
36931;SDS011;22847;42.654;23.370;2023-05-23T03:28:02;5.78;;;3.55;;
36931;SDS011;22847;42.654;23.370;2023-05-23T03:30:28;3.45;;;2.45;;
36931;SDS011;22847;42.654;23.370;2023-05-23T03:32:53;4.40;;;2.85;;
36931;SDS011;22847;42.654;23.370;2023-05-23T03:35:19;4.50;;;3.20;;
36931;SDS011;22847;42.654;23.370;2023-05-23T03:37:45;3.97;;;2.67;;
36931;SDS011;22847;42.654;23.370;2023-05-23T03:40:10;5.85;;;2.70;;
36931;SDS011;22847;42.654;23.370;2023-05-23T03:42:37;4.38;;;2.95;;
36931;SDS011;22847;42.654;23.370;2023-05-23T03:45:03;5.18;;;2.53;;
36931;SDS011;22847;42.654;23.370;2023-05-23T03:47:29;3.55;;;2.75;;
36931;SDS011;22847;42.654;23.370;2023-05-23T03:49:55;6.13;;;2.97;;
36931;SDS011;22847;42.654;23.370;2023-05-23T03:52:20;5.35;;;2.70;;
36931;SDS011;22847;42.654;23.370;2023-05-23T03:54:45;11.57;;;4.32;;
36931;SDS011;22847;42.654;23.370;2023-05-23T03:57:11;9.63;;;4.50;;
36931;SDS011;22847;42.654;23.370;2023-05-23T03:59:36;4.53;;;2.83;;
36931;SDS011;22847;42.654;23.370;2023-05-23T04:02:02;10.13;;;4.45;;
36931;SDS011;22847;42.654;23.370;2023-05-23T04:04:28;7.10;;;3.78;;
36931;SDS011;22847;42.654;23.370;2023-05-23T04:06:53;8.25;;;3.88;;
36931;SDS011;22847;42.654;23.370;2023-05-23T04:09:19;11.82;;;3.38;;
36931;SDS011;22847;42.654;23.370;2023-05-23T04:11:45;6.30;;;4.05;;
36931;SDS011;22847;42.654;23.370;2023-05-23T04:14:11;3.55;;;2.60;;
36931;SDS011;22847;42.654;23.370;2023-05-23T04:16:37;5.25;;;2.83;;
36931;SDS011;22847;42.654;23.370;2023-05-23T04:19:05;3.85;;;2.78;;
36931;SDS011;22847;42.654;23.370;2023-05-23T04:21:31;4.80;;;3.00;;
36931;SDS011;22847;42.654;23.370;2023-05-23T04:23:57;5.88;;;3.90;;
36931;SDS011;22847;42.654;23.370;2023-05-23T04:26:23;5.60;;;3.92;;
36931;SDS011;22847;42.654;23.370;2023-05-23T04:28:49;12.07;;;4.38;;
36931;SDS011;22847;42.654;23.370;2023-05-23T04:31:18;5.75;;;3.75;;
36931;SDS011;22847;42.654;23.370;2023-05-23T04:33:44;6.15;;;3.75;;
36931;SDS011;22847;42.654;23.370;2023-05-23T04:36:09;7.25;;;3.95;;
36931;SDS011;22847;42.654;23.370;2023-05-23T04:38:35;5.65;;;3.75;;
36931;SDS011;22847;42.654;23.370;2023-05-23T04:41:03;14.93;;;6.95;;
36931;SDS011;22847;42.654;23.370;2023-05-23T04:43:30;4.28;;;3.50;;
36931;SDS011;22847;42.654;23.370;2023-05-23T04:45:57;10.75;;;3.40;;
36931;SDS011;22847;42.654;23.370;2023-05-23T04:48:26;8.23;;;4.38;;
36931;SDS011;22847;42.654;23.370;2023-05-23T04:50:51;9.95;;;4.57;;
36931;SDS011;22847;42.654;23.370;2023-05-23T04:53:20;8.82;;;4.20;;
36931;SDS011;22847;42.654;23.370;2023-05-23T04:55:46;5.65;;;3.60;;
36931;SDS011;22847;42.654;23.370;2023-05-23T04:58:11;6.78;;;4.10;;
36931;SDS011;22847;42.654;23.370;2023-05-23T05:00:37;10.27;;;4.55;;
36931;SDS011;22847;42.654;23.370;2023-05-23T05:03:02;6.97;;;4.60;;
36931;SDS011;22847;42.654;23.370;2023-05-23T05:05:27;5.80;;;3.90;;
36931;SDS011;22847;42.654;23.370;2023-05-23T05:07:53;8.43;;;4.53;;
36931;SDS011;22847;42.654;23.370;2023-05-23T05:10:18;7.63;;;5.00;;
36931;SDS011;22847;42.654;23.370;2023-05-23T05:12:45;5.50;;;4.00;;
36931;SDS011;22847;42.654;23.370;2023-05-23T05:15:11;12.35;;;4.68;;
36931;SDS011;22847;42.654;23.370;2023-05-23T05:17:37;8.13;;;4.70;;
36931;SDS011;22847;42.654;23.370;2023-05-23T05:20:03;7.18;;;3.80;;
36931;SDS011;22847;42.654;23.370;2023-05-23T05:22:33;6.47;;;4.13;;
36931;SDS011;22847;42.654;23.370;2023-05-23T05:25:00;8.93;;;5.03;;
36931;SDS011;22847;42.654;23.370;2023-05-23T05:27:27;7.78;;;5.47;;
36931;SDS011;22847;42.654;23.370;2023-05-23T05:29:52;8.45;;;5.63;;
36931;SDS011;22847;42.654;23.370;2023-05-23T05:32:21;8.45;;;5.28;;
36931;SDS011;22847;42.654;23.370;2023-05-23T05:34:46;8.25;;;5.50;;
36931;SDS011;22847;42.654;23.370;2023-05-23T05:37:12;14.25;;;8.50;;
36931;SDS011;22847;42.654;23.370;2023-05-23T05:39:38;13.82;;;7.63;;
36931;SDS011;22847;42.654;23.370;2023-05-23T05:42:03;15.27;;;8.88;;
36931;SDS011;22847;42.654;23.370;2023-05-23T05:44:29;15.95;;;9.25;;
36931;SDS011;22847;42.654;23.370;2023-05-23T05:46:54;13.63;;;8.20;;
36931;SDS011;22847;42.654;23.370;2023-05-23T05:49:20;15.23;;;9.40;;
36931;SDS011;22847;42.654;23.370;2023-05-23T05:51:46;19.48;;;11.00;;
36931;SDS011;22847;42.654;23.370;2023-05-23T05:54:12;19.20;;;10.35;;
36931;SDS011;22847;42.654;23.370;2023-05-23T05:56:37;21.48;;;12.13;;
36931;SDS011;22847;42.654;23.370;2023-05-23T05:59:02;17.95;;;11.45;;
36931;SDS011;22847;42.654;23.370;2023-05-23T06:01:28;17.33;;;11.70;;
36931;SDS011;22847;42.654;23.370;2023-05-23T06:03:54;17.48;;;11.65;;
36931;SDS011;22847;42.654;23.370;2023-05-23T06:06:20;19.02;;;11.98;;
36931;SDS011;22847;42.654;23.370;2023-05-23T06:08:46;20.98;;;13.25;;
36931;SDS011;22847;42.654;23.370;2023-05-23T06:11:11;21.98;;;13.95;;
36931;SDS011;22847;42.654;23.370;2023-05-23T06:13:37;19.95;;;12.48;;
36931;SDS011;22847;42.654;23.370;2023-05-23T06:16:02;21.42;;;13.75;;
36931;SDS011;22847;42.654;23.370;2023-05-23T06:18:28;18.27;;;12.40;;
36931;SDS011;22847;42.654;23.370;2023-05-23T06:20:53;19.95;;;12.63;;
36931;SDS011;22847;42.654;23.370;2023-05-23T06:23:19;25.13;;;13.63;;
36931;SDS011;22847;42.654;23.370;2023-05-23T06:25:44;21.25;;;13.10;;
36931;SDS011;22847;42.654;23.370;2023-05-23T06:28:10;37.17;;;16.13;;
36931;SDS011;22847;42.654;23.370;2023-05-23T06:30:35;31.13;;;15.40;;
36931;SDS011;22847;42.654;23.370;2023-05-23T06:33:02;23.10;;;14.07;;
36931;SDS011;22847;42.654;23.370;2023-05-23T06:35:28;21.08;;;14.38;;
36931;SDS011;22847;42.654;23.370;2023-05-23T06:37:53;22.98;;;14.35;;
36931;SDS011;22847;42.654;23.370;2023-05-23T06:40:18;25.98;;;13.40;;
36931;SDS011;22847;42.654;23.370;2023-05-23T06:42:44;22.15;;;14.32;;
36931;SDS011;22847;42.654;23.370;2023-05-23T06:45:09;21.15;;;13.02;;
36931;SDS011;22847;42.654;23.370;2023-05-23T06:47:35;25.17;;;15.23;;
36931;SDS011;22847;42.654;23.370;2023-05-23T06:50:01;24.17;;;13.73;;
36931;SDS011;22847;42.654;23.370;2023-05-23T06:52:27;22.23;;;14.55;;
36931;SDS011;22847;42.654;23.370;2023-05-23T06:54:52;22.40;;;14.18;;
36931;SDS011;22847;42.654;23.370;2023-05-23T06:57:17;35.42;;;15.00;;
36931;SDS011;22847;42.654;23.370;2023-05-23T06:59:43;22.52;;;13.30;;
36931;SDS011;22847;42.654;23.370;2023-05-23T07:02:08;24.08;;;11.23;;
36931;SDS011;22847;42.654;23.370;2023-05-23T07:04:33;22.88;;;13.75;;
36931;SDS011;22847;42.654;23.370;2023-05-23T07:06:59;25.88;;;13.85;;
36931;SDS011;22847;42.654;23.370;2023-05-23T07:09:24;19.27;;;11.88;;
36931;SDS011;22847;42.654;23.370;2023-05-23T07:11:50;23.38;;;14.40;;
36931;SDS011;22847;42.654;23.370;2023-05-23T07:14:15;28.17;;;14.60;;
36931;SDS011;22847;42.654;23.370;2023-05-23T07:16:41;33.28;;;17.70;;
36931;SDS011;22847;42.654;23.370;2023-05-23T07:19:06;22.98;;;13.98;;
36931;SDS011;22847;42.654;23.370;2023-05-23T07:21:31;24.25;;;14.70;;
36931;SDS011;22847;42.654;23.370;2023-05-23T07:23:57;20.60;;;13.18;;
36931;SDS011;22847;42.654;23.370;2023-05-23T07:26:22;28.70;;;15.65;;
36931;SDS011;22847;42.654;23.370;2023-05-23T07:28:48;28.40;;;15.30;;
36931;SDS011;22847;42.654;23.370;2023-05-23T07:31:14;26.13;;;12.00;;
36931;SDS011;22847;42.654;23.370;2023-05-23T07:33:40;25.25;;;13.70;;
36931;SDS011;22847;42.654;23.370;2023-05-23T07:36:05;27.25;;;14.55;;
36931;SDS011;22847;42.654;23.370;2023-05-23T07:38:31;27.17;;;14.50;;
36931;SDS011;22847;42.654;23.370;2023-05-23T07:40:56;22.00;;;12.02;;
36931;SDS011;22847;42.654;23.370;2023-05-23T07:43:21;25.63;;;12.85;;
36931;SDS011;22847;42.654;23.370;2023-05-23T07:45:47;23.98;;;12.60;;
36931;SDS011;22847;42.654;23.370;2023-05-23T07:48:12;24.98;;;11.45;;
36931;SDS011;22847;42.654;23.370;2023-05-23T07:50:41;23.63;;;11.63;;
36931;SDS011;22847;42.654;23.370;2023-05-23T07:53:06;23.67;;;12.60;;
36931;SDS011;22847;42.654;23.370;2023-05-23T07:55:32;21.17;;;11.57;;
36931;SDS011;22847;42.654;23.370;2023-05-23T07:57:57;21.50;;;10.68;;
36931;SDS011;22847;42.654;23.370;2023-05-23T08:00:22;19.50;;;11.00;;
36931;SDS011;22847;42.654;23.370;2023-05-23T08:02:48;21.88;;;10.40;;
36931;SDS011;22847;42.654;23.370;2023-05-23T08:05:14;27.27;;;11.25;;
36931;SDS011;22847;42.654;23.370;2023-05-23T08:07:39;19.13;;;11.02;;
36931;SDS011;22847;42.654;23.370;2023-05-23T08:10:05;19.35;;;10.85;;
36931;SDS011;22847;42.654;23.370;2023-05-23T08:12:31;23.30;;;10.32;;
36931;SDS011;22847;42.654;23.370;2023-05-23T08:14:56;20.25;;;10.55;;
36931;SDS011;22847;42.654;23.370;2023-05-23T08:17:22;17.67;;;10.25;;
36931;SDS011;22847;42.654;23.370;2023-05-23T08:19:47;20.42;;;10.13;;
36931;SDS011;22847;42.654;23.370;2023-05-23T08:22:13;17.10;;;9.20;;
36931;SDS011;22847;42.654;23.370;2023-05-23T08:24:38;17.00;;;10.02;;
36931;SDS011;22847;42.654;23.370;2023-05-23T08:27:03;21.42;;;8.43;;
36931;SDS011;22847;42.654;23.370;2023-05-23T08:29:30;15.10;;;9.68;;
36931;SDS011;22847;42.654;23.370;2023-05-23T08:31:56;18.15;;;10.80;;
36931;SDS011;22847;42.654;23.370;2023-05-23T08:34:21;22.27;;;11.82;;
36931;SDS011;22847;42.654;23.370;2023-05-23T08:36:47;19.20;;;10.38;;
36931;SDS011;22847;42.654;23.370;2023-05-23T08:39:12;14.98;;;9.15;;
36931;SDS011;22847;42.654;23.370;2023-05-23T08:41:37;19.60;;;9.82;;
36931;SDS011;22847;42.654;23.370;2023-05-23T08:44:03;18.55;;;9.73;;
36931;SDS011;22847;42.654;23.370;2023-05-23T08:46:28;22.77;;;10.20;;
36931;SDS011;22847;42.654;23.370;2023-05-23T08:48:57;23.60;;;10.55;;
36931;SDS011;22847;42.654;23.370;2023-05-23T08:51:25;25.25;;;11.13;;
36931;SDS011;22847;42.654;23.370;2023-05-23T08:53:52;15.27;;;9.60;;
36931;SDS011;22847;42.654;23.370;2023-05-23T08:56:18;17.05;;;9.00;;
36931;SDS011;22847;42.654;23.370;2023-05-23T08:58:44;22.23;;;9.82;;
36931;SDS011;22847;42.654;23.370;2023-05-23T09:01:12;17.85;;;9.05;;
36931;SDS011;22847;42.654;23.370;2023-05-23T09:03:39;12.18;;;8.40;;
36931;SDS011;22847;42.654;23.370;2023-05-23T09:06:08;14.02;;;7.25;;
36931;SDS011;22847;42.654;23.370;2023-05-23T09:08:35;12.00;;;7.00;;
36931;SDS011;22847;42.654;23.370;2023-05-23T09:11:01;8.98;;;6.03;;
36931;SDS011;22847;42.654;23.370;2023-05-23T09:13:30;9.07;;;6.15;;
36931;SDS011;22847;42.654;23.370;2023-05-23T09:18:36;10.88;;;6.05;;
36931;SDS011;22847;42.654;23.370;2023-05-23T09:21:03;13.80;;;5.82;;
36931;SDS011;22847;42.654;23.370;2023-05-23T09:23:33;9.38;;;5.25;;
36931;SDS011;22847;42.654;23.370;2023-05-23T09:26:02;9.25;;;5.63;;
36931;SDS011;22847;42.654;23.370;2023-05-23T09:28:32;13.77;;;4.78;;
36931;SDS011;22847;42.654;23.370;2023-05-23T09:36:13;11.73;;;4.90;;
36931;SDS011;22847;42.654;23.370;2023-05-23T09:38:39;7.25;;;3.90;;
36931;SDS011;22847;42.654;23.370;2023-05-23T09:41:06;10.45;;;4.13;;
36931;SDS011;22847;42.654;23.370;2023-05-23T09:43:32;7.07;;;3.65;;
36931;SDS011;22847;42.654;23.370;2023-05-23T09:46:09;11.95;;;5.13;;
36931;SDS011;22847;42.654;23.370;2023-05-23T09:48:35;13.02;;;4.30;;
36931;SDS011;22847;42.654;23.370;2023-05-23T09:51:04;5.95;;;4.25;;
36931;SDS011;22847;42.654;23.370;2023-05-23T09:53:31;11.27;;;4.10;;
36931;SDS011;22847;42.654;23.370;2023-05-23T09:56:00;8.52;;;3.83;;
36931;SDS011;22847;42.654;23.370;2023-05-23T09:58:27;6.25;;;3.50;;
36931;SDS011;22847;42.654;23.370;2023-05-23T10:00:55;6.93;;;3.55;;
36931;SDS011;22847;42.654;23.370;2023-05-23T10:03:55;8.25;;;3.60;;
36931;SDS011;22847;42.654;23.370;2023-05-23T10:06:30;7.10;;;3.65;;
36931;SDS011;22847;42.654;23.370;2023-05-23T10:09:05;8.18;;;3.05;;
36931;SDS011;22847;42.654;23.370;2023-05-23T10:13:58;5.85;;;3.35;;
36931;SDS011;22847;42.654;23.370;2023-05-23T10:16:26;8.52;;;4.00;;
36931;SDS011;22847;42.654;23.370;2023-05-23T10:18:59;6.53;;;3.80;;
36931;SDS011;22847;42.654;23.370;2023-05-23T10:21:53;4.53;;;2.85;;
36931;SDS011;22847;42.654;23.370;2023-05-23T10:24:23;6.45;;;3.40;;
36931;SDS011;22847;42.654;23.370;2023-05-23T10:26:50;4.38;;;3.10;;
36931;SDS011;22847;42.654;23.370;2023-05-23T10:29:17;6.18;;;3.60;;
36931;SDS011;22847;42.654;23.370;2023-05-23T10:31:42;9.55;;;3.30;;
36931;SDS011;22847;42.654;23.370;2023-05-23T10:36:55;9.02;;;3.67;;
36931;SDS011;22847;42.654;23.370;2023-05-23T10:42:08;5.57;;;3.47;;
36931;SDS011;22847;42.654;23.370;2023-05-23T10:44:37;6.50;;;3.28;;
36931;SDS011;22847;42.654;23.370;2023-05-23T10:47:03;7.22;;;3.60;;
36931;SDS011;22847;42.654;23.370;2023-05-23T10:52:07;11.43;;;3.45;;
36931;SDS011;22847;42.654;23.370;2023-05-23T10:54:44;9.98;;;3.08;;
36931;SDS011;22847;42.654;23.370;2023-05-23T10:57:15;9.68;;;3.72;;
36931;SDS011;22847;42.654;23.370;2023-05-23T10:59:41;7.85;;;3.10;;
36931;SDS011;22847;42.654;23.370;2023-05-23T11:02:15;7.13;;;3.50;;
36931;SDS011;22847;42.654;23.370;2023-05-23T11:04:42;12.52;;;4.20;;
36931;SDS011;22847;42.654;23.370;2023-05-23T11:10:12;8.63;;;3.08;;
36931;SDS011;22847;42.654;23.370;2023-05-23T11:12:41;5.38;;;3.25;;
36931;SDS011;22847;42.654;23.370;2023-05-23T11:17:52;7.05;;;3.20;;
36931;SDS011;22847;42.654;23.370;2023-05-23T11:20:28;6.32;;;3.10;;
36931;SDS011;22847;42.654;23.370;2023-05-23T11:22:59;6.68;;;3.08;;
36931;SDS011;22847;42.654;23.370;2023-05-23T11:25:39;6.30;;;3.35;;
36931;SDS011;22847;42.654;23.370;2023-05-23T11:28:10;5.85;;;3.90;;
36931;SDS011;22847;42.654;23.370;2023-05-23T11:30:36;6.85;;;3.53;;
36931;SDS011;22847;42.654;23.370;2023-05-23T11:33:05;5.95;;;3.55;;
36931;SDS011;22847;42.654;23.370;2023-05-23T11:35:38;6.72;;;3.40;;
36931;SDS011;22847;42.654;23.370;2023-05-23T11:38:04;10.63;;;4.20;;
36931;SDS011;22847;42.654;23.370;2023-05-23T11:40:40;6.05;;;3.17;;
36931;SDS011;22847;42.654;23.370;2023-05-23T11:43:10;7.82;;;3.35;;
36931;SDS011;22847;42.654;23.370;2023-05-23T11:45:38;9.35;;;3.42;;
36931;SDS011;22847;42.654;23.370;2023-05-23T11:48:11;4.10;;;3.17;;
36931;SDS011;22847;42.654;23.370;2023-05-23T11:50:50;5.10;;;2.60;;
36931;SDS011;22847;42.654;23.370;2023-05-23T11:53:17;8.70;;;3.70;;
36931;SDS011;22847;42.654;23.370;2023-05-23T11:55:56;10.15;;;3.33;;
36931;SDS011;22847;42.654;23.370;2023-05-23T11:58:31;5.85;;;3.55;;
36931;SDS011;22847;42.654;23.370;2023-05-23T12:01:01;6.55;;;3.15;;
36931;SDS011;22847;42.654;23.370;2023-05-23T12:03:29;5.63;;;3.50;;
36931;SDS011;22847;42.654;23.370;2023-05-23T12:05:55;11.48;;;3.60;;
36931;SDS011;22847;42.654;23.370;2023-05-23T12:08:21;8.48;;;3.40;;
36931;SDS011;22847;42.654;23.370;2023-05-23T12:10:48;8.48;;;3.30;;
36931;SDS011;22847;42.654;23.370;2023-05-23T12:13:15;7.72;;;3.03;;
36931;SDS011;22847;42.654;23.370;2023-05-23T12:15:41;9.80;;;3.67;;
36931;SDS011;22847;42.654;23.370;2023-05-23T12:18:06;8.95;;;3.63;;
36931;SDS011;22847;42.654;23.370;2023-05-23T12:20:32;9.65;;;3.17;;
36931;SDS011;22847;42.654;23.370;2023-05-23T12:23:02;7.50;;;3.35;;
36931;SDS011;22847;42.654;23.370;2023-05-23T12:25:28;7.40;;;3.65;;
36931;SDS011;22847;42.654;23.370;2023-05-23T12:27:55;10.65;;;3.20;;
36931;SDS011;22847;42.654;23.370;2023-05-23T12:30:20;8.27;;;3.53;;
36931;SDS011;22847;42.654;23.370;2023-05-23T12:32:46;8.32;;;3.65;;
36931;SDS011;22847;42.654;23.370;2023-05-23T12:35:13;6.80;;;3.20;;
36931;SDS011;22847;42.654;23.370;2023-05-23T12:37:40;8.38;;;3.28;;
36931;SDS011;22847;42.654;23.370;2023-05-23T12:40:13;5.18;;;3.50;;
36931;SDS011;22847;42.654;23.370;2023-05-23T12:42:58;4.65;;;2.95;;
36931;SDS011;22847;42.654;23.370;2023-05-23T12:45:29;6.70;;;3.43;;
36931;SDS011;22847;42.654;23.370;2023-05-23T12:47:56;7.07;;;3.60;;
36931;SDS011;22847;42.654;23.370;2023-05-23T12:50:22;6.50;;;3.10;;
36931;SDS011;22847;42.654;23.370;2023-05-23T12:52:47;7.75;;;3.78;;
36931;SDS011;22847;42.654;23.370;2023-05-23T12:55:13;6.13;;;4.03;;
36931;SDS011;22847;42.654;23.370;2023-05-23T12:57:38;7.95;;;3.50;;
36931;SDS011;22847;42.654;23.370;2023-05-23T13:00:04;5.13;;;3.50;;
36931;SDS011;22847;42.654;23.370;2023-05-23T13:02:30;7.07;;;3.78;;
36931;SDS011;22847;42.654;23.370;2023-05-23T13:04:56;11.15;;;4.22;;
36931;SDS011;22847;42.654;23.370;2023-05-23T13:07:22;9.25;;;3.95;;
36931;SDS011;22847;42.654;23.370;2023-05-23T13:09:47;6.65;;;4.10;;
36931;SDS011;22847;42.654;23.370;2023-05-23T13:12:13;7.13;;;3.85;;
36931;SDS011;22847;42.654;23.370;2023-05-23T13:14:39;6.82;;;4.00;;
36931;SDS011;22847;42.654;23.370;2023-05-23T13:17:05;8.50;;;3.95;;
36931;SDS011;22847;42.654;23.370;2023-05-23T13:19:31;11.90;;;3.67;;
36931;SDS011;22847;42.654;23.370;2023-05-23T13:21:57;5.53;;;4.05;;
36931;SDS011;22847;42.654;23.370;2023-05-23T13:24:24;9.25;;;3.67;;
36931;SDS011;22847;42.654;23.370;2023-05-23T13:26:50;5.15;;;3.13;;
36931;SDS011;22847;42.654;23.370;2023-05-23T13:29:15;7.40;;;3.78;;
36931;SDS011;22847;42.654;23.370;2023-05-23T13:31:41;5.13;;;3.42;;
36931;SDS011;22847;42.654;23.370;2023-05-23T13:34:07;6.38;;;3.70;;
36931;SDS011;22847;42.654;23.370;2023-05-23T13:36:32;5.35;;;3.92;;
36931;SDS011;22847;42.654;23.370;2023-05-23T13:38:59;12.30;;;3.50;;
36931;SDS011;22847;42.654;23.370;2023-05-23T13:41:25;9.57;;;3.42;;
36931;SDS011;22847;42.654;23.370;2023-05-23T13:43:51;7.45;;;4.30;;
36931;SDS011;22847;42.654;23.370;2023-05-23T13:46:16;7.05;;;3.47;;
36931;SDS011;22847;42.654;23.370;2023-05-23T13:48:42;5.00;;;3.30;;
36931;SDS011;22847;42.654;23.370;2023-05-23T13:51:07;9.48;;;3.28;;
36931;SDS011;22847;42.654;23.370;2023-05-23T13:53:33;10.13;;;3.60;;
36931;SDS011;22847;42.654;23.370;2023-05-23T13:55:58;5.88;;;3.58;;
36931;SDS011;22847;42.654;23.370;2023-05-23T13:58:23;7.22;;;4.72;;
36931;SDS011;22847;42.654;23.370;2023-05-23T14:00:49;7.65;;;3.20;;
36931;SDS011;22847;42.654;23.370;2023-05-23T14:03:15;4.70;;;3.05;;
36931;SDS011;22847;42.654;23.370;2023-05-23T14:05:40;5.75;;;3.13;;
36931;SDS011;22847;42.654;23.370;2023-05-23T14:08:06;5.63;;;3.22;;
36931;SDS011;22847;42.654;23.370;2023-05-23T14:10:31;4.20;;;3.25;;
36931;SDS011;22847;42.654;23.370;2023-05-23T14:12:57;7.47;;;3.65;;
36931;SDS011;22847;42.654;23.370;2023-05-23T14:15:24;9.23;;;4.50;;
36931;SDS011;22847;42.654;23.370;2023-05-23T14:17:50;8.05;;;3.35;;
36931;SDS011;22847;42.654;23.370;2023-05-23T14:20:19;7.95;;;3.40;;
36931;SDS011;22847;42.654;23.370;2023-05-23T14:22:48;8.60;;;4.13;;
36931;SDS011;22847;42.654;23.370;2023-05-23T14:25:14;7.18;;;3.80;;
36931;SDS011;22847;42.654;23.370;2023-05-23T14:27:40;9.32;;;4.18;;
36931;SDS011;22847;42.654;23.370;2023-05-23T14:30:06;7.10;;;3.40;;
36931;SDS011;22847;42.654;23.370;2023-05-23T14:32:32;10.05;;;3.95;;
36931;SDS011;22847;42.654;23.370;2023-05-23T14:35:02;7.63;;;3.45;;
36931;SDS011;22847;42.654;23.370;2023-05-23T14:37:31;11.02;;;3.42;;
36931;SDS011;22847;42.654;23.370;2023-05-23T14:39:57;5.97;;;4.00;;
36931;SDS011;22847;42.654;23.370;2023-05-23T14:42:22;8.43;;;4.05;;
36931;SDS011;22847;42.654;23.370;2023-05-23T14:44:47;6.25;;;4.28;;
36931;SDS011;22847;42.654;23.370;2023-05-23T14:47:13;7.68;;;4.10;;
36931;SDS011;22847;42.654;23.370;2023-05-23T14:49:38;6.70;;;3.40;;
36931;SDS011;22847;42.654;23.370;2023-05-23T14:52:04;4.65;;;3.13;;
36931;SDS011;22847;42.654;23.370;2023-05-23T14:54:29;6.13;;;3.25;;
36931;SDS011;22847;42.654;23.370;2023-05-23T14:56:55;4.47;;;3.60;;
36931;SDS011;22847;42.654;23.370;2023-05-23T14:59:21;8.02;;;3.83;;
36931;SDS011;22847;42.654;23.370;2023-05-23T15:01:46;17.38;;;8.02;;